sensor_id;sensor_type;location;lat;lon;timestamp;pressure;altitude;pressure_sealevel;temperature;humidity
64616;BME280;51027;42.162;24.754;2022-09-09T00:04:31;99936.38;;;18.52;67.99
64616;BME280;51027;42.162;24.754;2022-09-09T00:06:59;99932.84;;;18.51;68.14
64616;BME280;51027;42.162;24.754;2022-09-09T00:09:29;99933.25;;;18.45;68.78
64616;BME280;51027;42.162;24.754;2022-09-09T00:12:06;99893.09;;;18.08;69.10
64616;BME280;51027;42.162;24.754;2022-09-09T00:14:56;99936.75;;;18.33;69.31
64616;BME280;51027;42.162;24.754;2022-09-09T00:17:37;99936.19;;;18.28;69.67
64616;BME280;51027;42.162;24.754;2022-09-09T00:20:34;99922.63;;;18.18;69.96
64616;BME280;51027;42.162;24.754;2022-09-09T00:23:23;99916.28;;;17.94;70.12
64616;BME280;51027;42.162;24.754;2022-09-09T00:26:09;99931.75;;;18.01;70.19
64616;BME280;51027;42.162;24.754;2022-09-09T00:28:52;99934.19;;;17.92;70.82
64616;BME280;51027;42.162;24.754;2022-09-09T00:31:27;99930.75;;;17.90;70.99
64616;BME280;51027;42.162;24.754;2022-09-09T00:33:53;99935.31;;;17.88;71.11
64616;BME280;51027;42.162;24.754;2022-09-09T00:36:24;99948.25;;;17.94;70.82
64616;BME280;51027;42.162;24.754;2022-09-09T00:38:56;99946.19;;;17.84;71.07
64616;BME280;51027;42.162;24.754;2022-09-09T00:44:01;99939.34;;;17.80;72.00
64616;BME280;51027;42.162;24.754;2022-09-09T00:57:14;99946.66;;;17.77;72.20
64616;BME280;51027;42.162;24.754;2022-09-09T00:59:46;99943.47;;;17.72;72.75
64616;BME280;51027;42.162;24.754;2022-09-09T01:02:28;99939.63;;;17.76;72.30
64616;BME280;51027;42.162;24.754;2022-09-09T01:05:05;99935.81;;;17.66;72.79
64616;BME280;51027;42.162;24.754;2022-09-09T01:07:33;99949.91;;;17.82;72.50
64616;BME280;51027;42.162;24.754;2022-09-09T01:10:00;99948.00;;;17.84;72.37
64616;BME280;51027;42.162;24.754;2022-09-09T01:15:12;99930.38;;;17.67;72.98
64616;BME280;51027;42.162;24.754;2022-09-09T01:17:50;99938.69;;;17.77;72.59
64616;BME280;51027;42.162;24.754;2022-09-09T01:20:27;99947.03;;;17.85;72.62
64616;BME280;51027;42.162;24.754;2022-09-09T01:28:35;99900.66;;;17.46;71.74
64616;BME280;51027;42.162;24.754;2022-09-09T01:31:03;99949.53;;;17.88;71.62
64616;BME280;51027;42.162;24.754;2022-09-09T01:33:30;99936.47;;;17.83;71.73
64616;BME280;51027;42.162;24.754;2022-09-09T01:38:57;99939.41;;;17.93;71.56
64616;BME280;51027;42.162;24.754;2022-09-09T01:41:22;99938.44;;;17.94;71.67
64616;BME280;51027;42.162;24.754;2022-09-09T01:43:48;99931.66;;;18.03;71.40
64616;BME280;51027;42.162;24.754;2022-09-09T01:46:14;99932.16;;;17.95;71.76
64616;BME280;51027;42.162;24.754;2022-09-09T01:48:41;99929.50;;;17.95;71.54
64616;BME280;51027;42.162;24.754;2022-09-09T01:51:08;99930.16;;;17.99;71.46
64616;BME280;51027;42.162;24.754;2022-09-09T01:53:35;99928.34;;;17.99;71.57
64616;BME280;51027;42.162;24.754;2022-09-09T01:56:29;99933.38;;;18.04;71.75
64616;BME280;51027;42.162;24.754;2022-09-09T02:02:06;99942.41;;;18.01;71.99
64616;BME280;51027;42.162;24.754;2022-09-09T02:04:43;99943.66;;;17.96;71.86
64616;BME280;51027;42.162;24.754;2022-09-09T02:07:18;99917.63;;;17.87;72.19
64616;BME280;51027;42.162;24.754;2022-09-09T02:09:51;99911.78;;;17.94;71.19
64616;BME280;51027;42.162;24.754;2022-09-09T02:12:23;99933.75;;;17.98;70.33
64616;BME280;51027;42.162;24.754;2022-09-09T02:14:55;99913.59;;;17.94;70.50
64616;BME280;51027;42.162;24.754;2022-09-09T02:17:31;99934.09;;;18.06;70.69
64616;BME280;51027;42.162;24.754;2022-09-09T02:20:09;99937.63;;;18.06;70.69
64616;BME280;51027;42.162;24.754;2022-09-09T02:22:39;99938.78;;;18.02;70.85
64616;BME280;51027;42.162;24.754;2022-09-09T02:25:08;99924.50;;;18.03;70.58
64616;BME280;51027;42.162;24.754;2022-09-09T02:27:35;99929.22;;;18.12;70.19
64616;BME280;51027;42.162;24.754;2022-09-09T02:30:03;99924.13;;;18.09;70.38
64616;BME280;51027;42.162;24.754;2022-09-09T02:32:32;99921.44;;;18.09;70.42
64616;BME280;51027;42.162;24.754;2022-09-09T02:35:00;99932.66;;;18.14;70.34
64616;BME280;51027;42.162;24.754;2022-09-09T02:37:35;99933.59;;;18.13;70.49
64616;BME280;51027;42.162;24.754;2022-09-09T02:40:06;99934.56;;;18.12;70.53
64616;BME280;51027;42.162;24.754;2022-09-09T02:42:41;99932.97;;;18.10;70.96
64616;BME280;51027;42.162;24.754;2022-09-09T02:45:08;99888.38;;;17.72;71.54
64616;BME280;51027;42.162;24.754;2022-09-09T02:47:38;99942.97;;;18.06;71.79
64616;BME280;51027;42.162;24.754;2022-09-09T02:50:41;99947.53;;;18.04;72.03
64616;BME280;51027;42.162;24.754;2022-09-09T02:53:19;99945.09;;;18.01;72.06
64616;BME280;51027;42.162;24.754;2022-09-09T02:55:58;99942.81;;;17.95;72.48
64616;BME280;51027;42.162;24.754;2022-09-09T02:58:27;99947.72;;;17.89;72.58
64616;BME280;51027;42.162;24.754;2022-09-09T03:00:53;99950.91;;;17.94;72.05
64616;BME280;51027;42.162;24.754;2022-09-09T03:03:19;99947.03;;;17.85;73.09
64616;BME280;51027;42.162;24.754;2022-09-09T03:05:46;99947.72;;;17.89;72.12
64616;BME280;51027;42.162;24.754;2022-09-09T03:08:12;99925.47;;;17.75;71.34
64616;BME280;51027;42.162;24.754;2022-09-09T03:10:38;99939.34;;;17.80;71.47
64616;BME280;51027;42.162;24.754;2022-09-09T03:13:03;99934.97;;;17.79;72.21
64616;BME280;51027;42.162;24.754;2022-09-09T03:15:31;99922.16;;;17.72;71.93
64616;BME280;51027;42.162;24.754;2022-09-09T03:17:57;99936.13;;;17.75;72.54
64616;BME280;51027;42.162;24.754;2022-09-09T03:20:24;99945.16;;;17.73;72.47
64616;BME280;51027;42.162;24.754;2022-09-09T03:22:52;99941.47;;;17.61;72.15
64616;BME280;51027;42.162;24.754;2022-09-09T03:25:17;99955.44;;;17.65;71.70
64616;BME280;51027;42.162;24.754;2022-09-09T03:27:43;99960.22;;;17.60;72.66
64616;BME280;51027;42.162;24.754;2022-09-09T03:30:09;99953.72;;;17.64;72.00
64616;BME280;51027;42.162;24.754;2022-09-09T03:32:34;99966.94;;;17.65;72.53
64616;BME280;51027;42.162;24.754;2022-09-09T03:35:00;99966.75;;;17.54;72.04
64616;BME280;51027;42.162;24.754;2022-09-09T03:37:26;99971.06;;;17.42;72.69
64616;BME280;51027;42.162;24.754;2022-09-09T03:39:51;99962.63;;;17.21;73.74
64616;BME280;51027;42.162;24.754;2022-09-09T03:42:19;99973.56;;;17.17;74.33
64616;BME280;51027;42.162;24.754;2022-09-09T03:44:45;99978.19;;;16.99;75.79
64616;BME280;51027;42.162;24.754;2022-09-09T03:47:19;99982.56;;;17.00;76.31
64616;BME280;51027;42.162;24.754;2022-09-09T03:49:47;99974.38;;;17.03;76.40
64616;BME280;51027;42.162;24.754;2022-09-09T03:52:13;99975.25;;;17.04;76.21
64616;BME280;51027;42.162;24.754;2022-09-09T03:54:39;99953.22;;;16.87;76.16
64616;BME280;51027;42.162;24.754;2022-09-09T03:57:06;99969.53;;;16.95;75.92
64616;BME280;51027;42.162;24.754;2022-09-09T03:59:32;99980.75;;;16.86;76.27
64616;BME280;51027;42.162;24.754;2022-09-09T04:01:57;99970.28;;;16.83;75.83
64616;BME280;51027;42.162;24.754;2022-09-09T04:04:24;99967.16;;;16.91;75.71
64616;BME280;51027;42.162;24.754;2022-09-09T04:06:49;99963.66;;;16.90;75.56
64616;BME280;51027;42.162;24.754;2022-09-09T04:09:16;99966.97;;;16.94;74.99
64616;BME280;51027;42.162;24.754;2022-09-09T04:11:41;99969.72;;;16.92;74.87
64616;BME280;51027;42.162;24.754;2022-09-09T04:14:07;99970.59;;;16.93;74.95
64616;BME280;51027;42.162;24.754;2022-09-09T04:16:33;99942.38;;;16.76;75.23
64616;BME280;51027;42.162;24.754;2022-09-09T04:18:59;99972.97;;;16.97;75.61
64616;BME280;51027;42.162;24.754;2022-09-09T04:21:25;99972.19;;;16.95;75.92
64616;BME280;51027;42.162;24.754;2022-09-09T04:23:51;99948.53;;;16.91;76.26
64616;BME280;51027;42.162;24.754;2022-09-09T04:26:17;99946.16;;;17.01;76.44
64616;BME280;51027;42.162;24.754;2022-09-09T04:28:43;99960.81;;;17.08;76.78
64616;BME280;51027;42.162;24.754;2022-09-09T04:31:13;99956.06;;;17.13;76.52
64616;BME280;51027;42.162;24.754;2022-09-09T04:33:39;99953.38;;;17.13;76.97
64616;BME280;51027;42.162;24.754;2022-09-09T04:36:05;99967.19;;;17.19;76.41
64616;BME280;51027;42.162;24.754;2022-09-09T04:38:31;99966.88;;;17.24;75.68
64616;BME280;51027;42.162;24.754;2022-09-09T04:40:57;99967.63;;;17.26;75.22
64616;BME280;51027;42.162;24.754;2022-09-09T04:43:22;99969.19;;;17.30;74.58
64616;BME280;51027;42.162;24.754;2022-09-09T04:45:49;99966.03;;;17.38;74.42
64616;BME280;51027;42.162;24.754;2022-09-09T04:48:14;99984.19;;;17.45;74.88
64616;BME280;51027;42.162;24.754;2022-09-09T04:50:40;99984.75;;;17.50;74.02
64616;BME280;51027;42.162;24.754;2022-09-09T04:53:06;99980.47;;;17.62;73.24
64616;BME280;51027;42.162;24.754;2022-09-09T04:55:32;99987.16;;;17.69;73.55
64616;BME280;51027;42.162;24.754;2022-09-09T04:58:05;99994.25;;;17.83;75.14
64616;BME280;51027;42.162;24.754;2022-09-09T05:00:32;99998.50;;;17.85;75.70
64616;BME280;51027;42.162;24.754;2022-09-09T05:03:03;99987.69;;;17.89;76.02
64616;BME280;51027;42.162;24.754;2022-09-09T05:05:29;99990.03;;;17.93;75.56
64616;BME280;51027;42.162;24.754;2022-09-09T05:08:00;99991.25;;;18.02;74.89
64616;BME280;51027;42.162;24.754;2022-09-09T05:10:27;99985.28;;;17.98;74.52
64616;BME280;51027;42.162;24.754;2022-09-09T05:12:53;99996.53;;;17.61;75.49
64616;BME280;51027;42.162;24.754;2022-09-09T05:15:19;99995.69;;;17.74;75.13
64616;BME280;51027;42.162;24.754;2022-09-09T05:17:45;99982.03;;;17.93;74.45
64616;BME280;51027;42.162;24.754;2022-09-09T05:20:11;99987.72;;;18.01;73.58
64616;BME280;51027;42.162;24.754;2022-09-09T05:22:37;99972.81;;;17.99;73.22
64616;BME280;51027;42.162;24.754;2022-09-09T05:25:03;99979.13;;;18.10;72.57
64616;BME280;51027;42.162;24.754;2022-09-09T05:27:28;99965.72;;;17.71;73.16
64616;BME280;51027;42.162;24.754;2022-09-09T05:29:56;99982.34;;;18.16;73.52
64616;BME280;51027;42.162;24.754;2022-09-09T05:32:22;99977.16;;;18.27;72.13
64616;BME280;51027;42.162;24.754;2022-09-09T05:34:48;99992.00;;;18.04;72.31
64616;BME280;51027;42.162;24.754;2022-09-09T05:37:13;99988.94;;;18.10;72.75
64616;BME280;51027;42.162;24.754;2022-09-09T05:39:39;99989.97;;;18.34;71.57
64616;BME280;51027;42.162;24.754;2022-09-09T05:42:04;99992.72;;;18.20;72.16
64616;BME280;51027;42.162;24.754;2022-09-09T05:44:31;99992.88;;;18.44;71.09
64616;BME280;51027;42.162;24.754;2022-09-09T05:46:56;99992.69;;;18.47;70.99
64616;BME280;51027;42.162;24.754;2022-09-09T05:49:23;99988.63;;;18.41;71.19
64616;BME280;51027;42.162;24.754;2022-09-09T05:51:49;99992.38;;;17.71;73.25
64616;BME280;51027;42.162;24.754;2022-09-09T05:54:15;99993.44;;;18.09;72.52
64616;BME280;51027;42.162;24.754;2022-09-09T05:56:41;99983.19;;;18.43;71.48
64616;BME280;51027;42.162;24.754;2022-09-09T05:59:07;99959.41;;;18.40;70.62
64616;BME280;51027;42.162;24.754;2022-09-09T06:01:35;99997.59;;;18.40;71.05
64616;BME280;51027;42.162;24.754;2022-09-09T06:04:02;99988.41;;;18.72;70.31
64616;BME280;51027;42.162;24.754;2022-09-09T06:06:31;99938.72;;;18.56;69.81
64616;BME280;51027;42.162;24.754;2022-09-09T06:09:03;99972.09;;;19.14;68.70
64616;BME280;51027;42.162;24.754;2022-09-09T06:11:31;99961.53;;;19.13;68.56
64616;BME280;51027;42.162;24.754;2022-09-09T06:13:57;99967.91;;;19.23;68.56
64616;BME280;51027;42.162;24.754;2022-09-09T06:16:25;99972.13;;;18.62;69.44
64616;BME280;51027;42.162;24.754;2022-09-09T06:18:52;99962.50;;;18.59;69.99
64616;BME280;51027;42.162;24.754;2022-09-09T06:21:24;99888.31;;;17.87;70.61
64616;BME280;51027;42.162;24.754;2022-09-09T06:23:50;99971.00;;;18.79;69.80
64616;BME280;51027;42.162;24.754;2022-09-09T06:26:18;99964.72;;;19.05;68.58
64616;BME280;51027;42.162;24.754;2022-09-09T06:28:45;99960.88;;;19.22;67.88
64616;BME280;51027;42.162;24.754;2022-09-09T06:31:12;99958.75;;;19.02;68.12
64616;BME280;51027;42.162;24.754;2022-09-09T06:33:41;99961.53;;;19.13;67.69
64616;BME280;51027;42.162;24.754;2022-09-09T06:36:11;99986.19;;;19.04;67.17
64616;BME280;51027;42.162;24.754;2022-09-09T06:38:37;99980.00;;;19.03;67.63
64616;BME280;51027;42.162;24.754;2022-09-09T06:41:02;99961.19;;;19.05;67.58
64616;BME280;51027;42.162;24.754;2022-09-09T06:43:28;99984.97;;;19.59;66.44
64616;BME280;51027;42.162;24.754;2022-09-09T06:45:58;99979.31;;;19.63;66.25
64616;BME280;51027;42.162;24.754;2022-09-09T06:48:24;99904.72;;;19.47;65.68
64616;BME280;51027;42.162;24.754;2022-09-09T06:51:01;99978.06;;;19.93;66.17
64616;BME280;51027;42.162;24.754;2022-09-09T06:53:27;99980.78;;;20.04;65.32
64616;BME280;51027;42.162;24.754;2022-09-09T06:55:53;99965.81;;;20.01;65.25
64616;BME280;51027;42.162;24.754;2022-09-09T06:58:18;99982.81;;;19.76;66.04
64616;BME280;51027;42.162;24.754;2022-09-09T07:00:43;99975.09;;;19.84;66.53
64616;BME280;51027;42.162;24.754;2022-09-09T07:03:10;99984.63;;;19.76;66.30
64616;BME280;51027;42.162;24.754;2022-09-09T07:05:35;99980.25;;;19.49;67.12
64616;BME280;51027;42.162;24.754;2022-09-09T07:08:01;99975.78;;;19.99;65.75
64616;BME280;51027;42.162;24.754;2022-09-09T07:10:27;99976.97;;;20.19;65.50
64616;BME280;51027;42.162;24.754;2022-09-09T07:12:52;99977.84;;;20.44;64.59
64616;BME280;51027;42.162;24.754;2022-09-09T07:15:18;99926.34;;;20.40;64.13
64616;BME280;51027;42.162;24.754;2022-09-09T07:17:45;99971.09;;;20.62;63.74
64616;BME280;51027;42.162;24.754;2022-09-09T07:20:11;99974.63;;;20.62;63.43
64616;BME280;51027;42.162;24.754;2022-09-09T07:22:37;99974.78;;;20.83;62.71
64616;BME280;51027;42.162;24.754;2022-09-09T07:25:03;99970.91;;;20.76;62.91
64616;BME280;51027;42.162;24.754;2022-09-09T07:27:29;99975.28;;;20.77;62.22
64616;BME280;51027;42.162;24.754;2022-09-09T07:29:55;99959.56;;;20.84;62.17
64616;BME280;51027;42.162;24.754;2022-09-09T07:32:20;99957.66;;;20.97;61.86
64616;BME280;51027;42.162;24.754;2022-09-09T07:34:46;99974.09;;;21.15;61.16
64616;BME280;51027;42.162;24.754;2022-09-09T07:37:13;99954.03;;;21.20;60.78
64616;BME280;51027;42.162;24.754;2022-09-09T07:39:39;99971.09;;;21.42;61.01
64616;BME280;51027;42.162;24.754;2022-09-09T07:42:05;99977.56;;;21.39;60.31
64616;BME280;51027;42.162;24.754;2022-09-09T07:44:31;99970.97;;;21.54;59.74
64616;BME280;51027;42.162;24.754;2022-09-09T07:47:00;99958.91;;;21.60;59.16
64616;BME280;51027;42.162;24.754;2022-09-09T07:49:26;99963.53;;;21.69;59.04
64616;BME280;51027;42.162;24.754;2022-09-09T07:51:51;99958.38;;;21.89;58.79
64616;BME280;51027;42.162;24.754;2022-09-09T07:54:18;99958.63;;;22.08;58.20
64616;BME280;51027;42.162;24.754;2022-09-09T07:56:46;99962.66;;;22.34;57.53
64616;BME280;51027;42.162;24.754;2022-09-09T07:59:12;99956.50;;;22.43;57.48
64616;BME280;51027;42.162;24.754;2022-09-09T08:01:43;99948.75;;;22.61;57.15
64616;BME280;51027;42.162;24.754;2022-09-09T08:04:11;99927.59;;;22.15;56.98
64616;BME280;51027;42.162;24.754;2022-09-09T08:06:45;99955.25;;;22.48;56.88
64616;BME280;51027;42.162;24.754;2022-09-09T08:09:11;99947.25;;;22.68;56.22
64616;BME280;51027;42.162;24.754;2022-09-09T08:11:38;99945.16;;;22.93;55.92
64616;BME280;51027;42.162;24.754;2022-09-09T08:14:04;99943.03;;;23.27;55.08
64616;BME280;51027;42.162;24.754;2022-09-09T08:16:32;99953.31;;;23.43;54.72
64616;BME280;51027;42.162;24.754;2022-09-09T08:18:58;99940.72;;;23.43;54.38
64616;BME280;51027;42.162;24.754;2022-09-09T08:21:28;99934.19;;;23.76;54.04
64616;BME280;51027;42.162;24.754;2022-09-09T08:23:55;99941.47;;;24.05;53.29
64616;BME280;51027;42.162;24.754;2022-09-09T08:26:23;99940.66;;;24.33;52.57
64616;BME280;51027;42.162;24.754;2022-09-09T08:28:50;99943.31;;;24.24;52.44
64616;BME280;51027;42.162;24.754;2022-09-09T08:31:19;99928.31;;;24.31;53.58
64616;BME280;51027;42.162;24.754;2022-09-09T08:33:46;99926.19;;;24.44;51.56
64616;BME280;51027;42.162;24.754;2022-09-09T08:36:17;99926.19;;;24.63;51.08
64616;BME280;51027;42.162;24.754;2022-09-09T08:38:52;99920.19;;;24.21;50.72
64616;BME280;51027;42.162;24.754;2022-09-09T08:47:00;99922.91;;;24.50;50.88
64616;BME280;51027;42.162;24.754;2022-09-09T08:52:27;99923.00;;;25.62;49.10
64616;BME280;51027;42.162;24.754;2022-09-09T08:54:57;99914.50;;;25.29;48.83
64616;BME280;51027;42.162;24.754;2022-09-09T08:57:27;99890.94;;;24.94;48.70
64616;BME280;51027;42.162;24.754;2022-09-09T08:59:55;99912.47;;;25.41;48.44
64616;BME280;51027;42.162;24.754;2022-09-09T09:10:10;99895.44;;;25.40;47.84
64616;BME280;51027;42.162;24.754;2022-09-09T09:12:44;99910.91;;;25.38;48.03
64616;BME280;51027;42.162;24.754;2022-09-09T09:15:24;99905.94;;;25.71;47.24
64616;BME280;51027;42.162;24.754;2022-09-09T09:17:50;99888.06;;;25.70;47.31
64616;BME280;51027;42.162;24.754;2022-09-09T09:20:19;99883.84;;;25.85;48.43
64616;BME280;51027;42.162;24.754;2022-09-09T09:22:51;99884.75;;;25.76;47.53
64616;BME280;51027;42.162;24.754;2022-09-09T09:25:23;99895.59;;;25.84;47.57
64616;BME280;51027;42.162;24.754;2022-09-09T09:28:16;99875.38;;;25.25;47.86
64616;BME280;51027;42.162;24.754;2022-09-09T09:31:04;99874.75;;;25.31;47.51
64616;BME280;51027;42.162;24.754;2022-09-09T09:36:07;99862.94;;;25.60;47.47
64616;BME280;51027;42.162;24.754;2022-09-09T09:38:34;99864.69;;;25.78;47.87
64616;BME280;51027;42.162;24.754;2022-09-09T09:41:00;99856.13;;;26.01;47.13
64616;BME280;51027;42.162;24.754;2022-09-09T09:43:35;99859.91;;;25.72;47.53
64616;BME280;51027;42.162;24.754;2022-09-09T09:46:05;99855.13;;;26.20;46.96
64616;BME280;51027;42.162;24.754;2022-09-09T09:48:43;99838.69;;;25.60;47.04
64616;BME280;51027;42.162;24.754;2022-09-09T09:51:11;99852.94;;;26.23;46.57
64616;BME280;51027;42.162;24.754;2022-09-09T09:53:39;99841.94;;;26.60;46.34
64616;BME280;51027;42.162;24.754;2022-09-09T09:56:09;99841.56;;;26.55;45.71
64616;BME280;51027;42.162;24.754;2022-09-09T10:01:38;99832.16;;;26.59;45.51
64616;BME280;51027;42.162;24.754;2022-09-09T10:04:14;99842.09;;;26.85;45.71
64616;BME280;51027;42.162;24.754;2022-09-09T10:06:41;99818.53;;;26.69;45.46
64616;BME280;51027;42.162;24.754;2022-09-09T10:09:25;99808.22;;;26.38;45.99
64616;BME280;51027;42.162;24.754;2022-09-09T10:15:15;99810.09;;;27.06;45.99
64616;BME280;51027;42.162;24.754;2022-09-09T10:20:45;99807.53;;;27.39;44.81
64616;BME280;51027;42.162;24.754;2022-09-09T10:26:27;99803.97;;;27.30;45.50
64616;BME280;51027;42.162;24.754;2022-09-09T10:32:55;99823.63;;;27.65;44.29
64616;BME280;51027;42.162;24.754;2022-09-09T10:34:56;99816.75;;;27.78;44.32
64616;BME280;51027;42.162;24.754;2022-09-09T10:40:33;99806.59;;;27.89;44.05
64616;BME280;51027;42.162;24.754;2022-09-09T10:56:49;99793.41;;;28.02;43.29
64616;BME280;51027;42.162;24.754;2022-09-09T10:59:21;99781.75;;;28.34;43.03
64616;BME280;51027;42.162;24.754;2022-09-09T11:02:02;99779.84;;;28.51;43.10
64616;BME280;51027;42.162;24.754;2022-09-09T11:04:35;99774.91;;;28.62;43.32
64616;BME280;51027;42.162;24.754;2022-09-09T11:07:08;99782.19;;;28.62;43.86
64616;BME280;51027;42.162;24.754;2022-09-09T11:09:41;99778.38;;;28.79;43.49
64616;BME280;51027;42.162;24.754;2022-09-09T11:12:13;99768.63;;;28.62;43.20
64616;BME280;51027;42.162;24.754;2022-09-09T11:14:45;99770.44;;;28.78;42.68
64616;BME280;51027;42.162;24.754;2022-09-09T11:17:18;99749.34;;;28.49;43.54
64616;BME280;51027;42.162;24.754;2022-09-09T11:19:45;99769.97;;;28.66;42.72
64616;BME280;51027;42.162;24.754;2022-09-09T11:22:27;99764.06;;;28.62;43.35
64616;BME280;51027;42.162;24.754;2022-09-09T11:25:01;99765.97;;;28.46;43.25
64616;BME280;51027;42.162;24.754;2022-09-09T11:30:20;99744.50;;;28.83;42.94
64616;BME280;51027;42.162;24.754;2022-09-09T11:38:29;99737.03;;;28.93;42.45
64616;BME280;51027;42.162;24.754;2022-09-09T11:41:02;99736.19;;;28.21;42.64
64616;BME280;51027;42.162;24.754;2022-09-09T11:46:03;99740.31;;;28.73;41.95
64616;BME280;51027;42.162;24.754;2022-09-09T11:48:37;99743.91;;;28.49;42.57
64616;BME280;51027;42.162;24.754;2022-09-09T11:51:06;99742.41;;;28.46;42.90
64616;BME280;51027;42.162;24.754;2022-09-09T11:53:33;99736.84;;;28.39;42.95
64616;BME280;51027;42.162;24.754;2022-09-09T11:58:35;99724.09;;;29.04;42.16
64616;BME280;51027;42.162;24.754;2022-09-09T12:01:13;99728.56;;;28.41;43.55
64616;BME280;51027;42.162;24.754;2022-09-09T12:03:47;99714.19;;;28.32;43.55
64616;BME280;51027;42.162;24.754;2022-09-09T12:06:18;99719.94;;;28.21;43.08
64616;BME280;51027;42.162;24.754;2022-09-09T12:08:50;99712.09;;;28.51;42.79
64616;BME280;51027;42.162;24.754;2022-09-09T12:11:28;99699.75;;;28.79;43.04
64616;BME280;51027;42.162;24.754;2022-09-09T12:13:58;99700.00;;;29.01;42.99
64616;BME280;51027;42.162;24.754;2022-09-09T12:19:21;99687.69;;;28.90;41.87
64616;BME280;51027;42.162;24.754;2022-09-09T12:25:08;99695.69;;;28.83;42.88
64616;BME280;51027;42.162;24.754;2022-09-09T12:28:11;99692.56;;;28.63;43.07
64616;BME280;51027;42.162;24.754;2022-09-09T12:33:18;99685.97;;;28.58;43.11
64616;BME280;51027;42.162;24.754;2022-09-09T12:35:49;99680.69;;;28.64;42.82
64616;BME280;51027;42.162;24.754;2022-09-09T12:38:37;99675.03;;;28.27;43.54
64616;BME280;51027;42.162;24.754;2022-09-09T12:41:04;99679.16;;;28.06;44.06
64616;BME280;51027;42.162;24.754;2022-09-09T12:43:30;99679.50;;;28.03;43.51
64616;BME280;51027;42.162;24.754;2022-09-09T12:45:59;99667.84;;;27.87;44.34
64616;BME280;51027;42.162;24.754;2022-09-09T12:48:44;99670.75;;;27.77;44.50
64616;BME280;51027;42.162;24.754;2022-09-09T12:51:29;99655.66;;;27.99;44.46
64616;BME280;51027;42.162;24.754;2022-09-09T12:53:55;99661.78;;;27.93;43.97
64616;BME280;51027;42.162;24.754;2022-09-09T12:56:24;99652.06;;;28.06;44.02
64616;BME280;51027;42.162;24.754;2022-09-09T12:58:52;99651.25;;;28.06;44.43
64616;BME280;51027;42.162;24.754;2022-09-09T13:01:27;99661.56;;;28.10;44.13
64616;BME280;51027;42.162;24.754;2022-09-09T13:03:54;99632.91;;;28.32;43.76
64616;BME280;51027;42.162;24.754;2022-09-09T13:06:31;99629.00;;;28.19;43.48
64616;BME280;51027;42.162;24.754;2022-09-09T13:08:59;99638.31;;;28.24;43.67
64616;BME280;51027;42.162;24.754;2022-09-09T13:11:31;99645.78;;;28.30;44.00
64616;BME280;51027;42.162;24.754;2022-09-09T13:14:00;99643.34;;;28.44;43.64
64616;BME280;51027;42.162;24.754;2022-09-09T13:16:29;99642.84;;;28.40;43.85
64616;BME280;51027;42.162;24.754;2022-09-09T13:19:06;99636.03;;;28.52;43.61
64616;BME280;51027;42.162;24.754;2022-09-09T13:21:39;99630.88;;;28.34;43.83
64616;BME280;51027;42.162;24.754;2022-09-09T13:24:06;99609.88;;;28.28;44.21
64616;BME280;51027;42.162;24.754;2022-09-09T13:26:54;99636.44;;;28.41;44.24
64616;BME280;51027;42.162;24.754;2022-09-09T13:29:22;99634.97;;;28.30;44.24
64616;BME280;51027;42.162;24.754;2022-09-09T13:31:48;99621.63;;;28.04;43.86
64616;BME280;51027;42.162;24.754;2022-09-09T13:34:26;99623.94;;;28.32;44.63
64616;BME280;51027;42.162;24.754;2022-09-09T13:36:59;99636.16;;;28.59;43.41
64616;BME280;51027;42.162;24.754;2022-09-09T13:39:27;99615.88;;;28.55;44.82
64616;BME280;51027;42.162;24.754;2022-09-09T13:41:53;99609.19;;;28.65;43.96
64616;BME280;51027;42.162;24.754;2022-09-09T13:44:34;99616.50;;;28.88;44.74
64616;BME280;51027;42.162;24.754;2022-09-09T13:47:16;99612.81;;;28.89;43.25
64616;BME280;51027;42.162;24.754;2022-09-09T13:49:42;99597.88;;;28.62;42.54
64616;BME280;51027;42.162;24.754;2022-09-09T13:52:12;99609.78;;;28.53;43.67
64616;BME280;51027;42.162;24.754;2022-09-09T13:54:39;99604.03;;;28.48;44.23
64616;BME280;51027;42.162;24.754;2022-09-09T13:57:11;99594.06;;;28.40;43.01
64616;BME280;51027;42.162;24.754;2022-09-09T13:59:39;99596.72;;;28.56;43.13
64616;BME280;51027;42.162;24.754;2022-09-09T14:02:04;99594.06;;;28.71;43.30
64616;BME280;51027;42.162;24.754;2022-09-09T14:04:29;99597.72;;;28.86;43.63
64616;BME280;51027;42.162;24.754;2022-09-09T14:06:55;99599.59;;;28.86;42.84
64616;BME280;51027;42.162;24.754;2022-09-09T14:09:21;99600.03;;;28.66;44.07
64616;BME280;51027;42.162;24.754;2022-09-09T14:11:47;99602.34;;;28.78;43.72
64616;BME280;51027;42.162;24.754;2022-09-09T14:14:12;99593.31;;;28.62;43.64
64616;BME280;51027;42.162;24.754;2022-09-09T14:16:38;99599.00;;;28.36;44.23
64616;BME280;51027;42.162;24.754;2022-09-09T14:19:03;99593.63;;;28.28;44.10
64616;BME280;51027;42.162;24.754;2022-09-09T14:21:29;99586.69;;;28.18;44.18
64616;BME280;51027;42.162;24.754;2022-09-09T14:23:55;99602.19;;;28.01;45.17
64616;BME280;51027;42.162;24.754;2022-09-09T14:26:23;99594.06;;;28.01;44.83
64616;BME280;51027;42.162;24.754;2022-09-09T14:28:50;99588.97;;;27.98;45.22
64616;BME280;51027;42.162;24.754;2022-09-09T14:31:17;99579.53;;;27.94;45.13
64616;BME280;51027;42.162;24.754;2022-09-09T14:33:43;99564.44;;;27.99;45.47
64616;BME280;51027;42.162;24.754;2022-09-09T14:36:08;99528.78;;;27.88;45.28
64616;BME280;51027;42.162;24.754;2022-09-09T14:38:36;99572.00;;;28.12;45.26
64616;BME280;51027;42.162;24.754;2022-09-09T14:41:05;99586.16;;;27.91;45.54
64616;BME280;51027;42.162;24.754;2022-09-09T14:43:31;99585.41;;;28.05;45.37
64616;BME280;51027;42.162;24.754;2022-09-09T14:46:04;99588.59;;;28.09;45.51
64616;BME280;51027;42.162;24.754;2022-09-09T14:48:30;99583.34;;;28.07;45.52